»·PEaware :: N5157Z KSNA-KBFL

N5157Z :: KSNA-KBFL

FLIGHT INFORMATION

Flight Status: Arrived
Operator: Privately registered:
United States
More flights under this callsign
Pilot: Matt L. (27725)
Aircraft: CESSNA 172 SKYHAWK
(C172)
More flights by this aircraft type
Origin: KSNA John Wayne-Orange Co
United States
Destination: KBFL Meadows
United States
More flights between these airports :: More routes between these airports
Route: +SLI V459 LHS FASTO2
File this flight plan on PilotEdge
Remarks:
Altitude:
(Current/Filed)
10,000ft
Speed:
(Current/Filed)
105kts
Departed: 13-Feb-20 02:15 PM
Arrived: 13-Feb-20 03:27 PM
Distance/Time
Traveled:
120nm/1:11
Distance/Time
To Go:
Arrived

Flight Plot

Page will automatically refresh every two minutes.

Flight plan parsing failed; only flown route is shown


Map Options




Map Legend


Flown Route
Filed Route
Departure Airport
Arrival Airport
Navaid (VOR, NDB)
Fix

Horizontal Profiles

Position Reports

Time Latitude Longitude Heading Altitude Ground
Speed
13-Feb-20 13:51 33.667170 -117.872135 225 60ft 0kts
13-Feb-20 13:52 33.667170 -117.872135 225 60ft 0kts
13-Feb-20 13:53 33.667170 -117.872135 225 60ft 0kts
13-Feb-20 13:54 33.667170 -117.872135 225 60ft 0kts
13-Feb-20 13:55 33.667170 -117.872135 225 60ft 0kts
13-Feb-20 13:56 33.667170 -117.872135 225 60ft 0kts
13-Feb-20 13:57 33.667170 -117.872135 225 60ft 0kts
13-Feb-20 13:58 33.667170 -117.872135 225 60ft 0kts
13-Feb-20 13:59 33.667170 -117.872135 225 60ft 0kts
13-Feb-20 14:00 33.667170 -117.872135 225 60ft 0kts
13-Feb-20 14:01 33.667170 -117.872135 225 60ft 0kts
13-Feb-20 14:02 33.667170 -117.872135 225 60ft 0kts
13-Feb-20 14:03 33.667170 -117.872135 225 60ft 0kts
13-Feb-20 14:04 33.667170 -117.872135 225 60ft 0kts
13-Feb-20 14:05 33.667170 -117.872135 225 60ft 0kts
13-Feb-20 14:06 33.667134 -117.872199 234 60ft 8kts
13-Feb-20 14:07 33.669453 -117.870570 40 60ft 16kts
13-Feb-20 14:08 33.673081 -117.867247 48 60ft 19kts
13-Feb-20 14:09 33.676694 -117.865446 26 60ft 18kts
13-Feb-20 14:10 33.679941 -117.863580 300 60ft 0kts
13-Feb-20 14:11 33.679941 -117.863580 300 60ft 0kts
13-Feb-20 14:12 33.679941 -117.863580 300 60ft 0kts
13-Feb-20 14:13 33.679943 -117.863583 299 60ft 1kts
13-Feb-20 14:14 33.666367 -117.872795 209 474ft 76kts
13-Feb-20 14:15 33.654164 -117.892102 244 1232ft 74kts
13-Feb-20 14:16 33.644485 -117.916701 244 1894ft 92kts
13-Feb-20 14:17 33.633388 -117.945887 244 2578ft 98kts
13-Feb-20 14:18 33.622983 -117.975934 261 3276ft 98kts
13-Feb-20 14:19 33.621344 -118.008224 265 3975ft 95kts
13-Feb-20 14:20 33.620053 -118.039394 265 4648ft 94kts
13-Feb-20 14:21 33.632923 -118.065862 325 5155ft 106kts
13-Feb-20 14:22 33.657913 -118.085782 325 5658ft 108kts
13-Feb-20 14:23 33.683107 -118.105862 325 6159ft 108kts
13-Feb-20 14:24 33.707990 -118.125661 325 6658ft 107kts
13-Feb-20 14:25 33.732772 -118.145373 325 7160ft 105kts
13-Feb-20 14:26 33.758181 -118.160702 3 7656ft 103kts
13-Feb-20 14:27 33.786470 -118.157768 6 8156ft 100kts
13-Feb-20 14:28 33.813908 -118.154908 6 8655ft 97kts
13-Feb-20 14:29 33.839813 -118.152308 6 9146ft 89kts
13-Feb-20 14:30 33.863503 -118.150038 6 9634ft 80kts
13-Feb-20 14:31 33.884668 -118.148139 6 10050ft 73kts
13-Feb-20 14:32 33.911146 -118.144285 7 10053ft 114kts
13-Feb-20 14:33 33.943733 -118.147242 320 10051ft 127kts
13-Feb-20 14:34 33.976248 -118.164622 337 10052ft 128kts
13-Feb-20 14:35 34.008934 -118.182721 335 10054ft 129kts
13-Feb-20 14:36 34.041350 -118.201219 335 10055ft 129kts
13-Feb-20 14:37 34.073838 -118.219880 335 10055ft 129kts
13-Feb-20 14:38 34.106171 -118.238488 335 10055ft 129kts
13-Feb-20 14:40 34.138595 -118.257168 335 10054ft 129kts
13-Feb-20 14:41 34.170977 -118.275842 335 10053ft 129kts
13-Feb-20 14:42 34.203292 -118.294493 335 10053ft 129kts
13-Feb-20 14:43 34.235709 -118.313219 335 10052ft 129kts
13-Feb-20 14:44 34.267962 -118.331866 335 10054ft 128kts
13-Feb-20 14:45 34.300328 -118.350595 335 10058ft 128kts
13-Feb-20 14:46 34.332578 -118.369273 335 10062ft 128kts
13-Feb-20 14:47 34.364812 -118.387957 335 10065ft 129kts
13-Feb-20 14:48 34.397152 -118.406719 335 10069ft 129kts
13-Feb-20 14:49 34.429480 -118.425491 335 10072ft 129kts
13-Feb-20 14:50 34.461805 -118.444276 335 10073ft 129kts
13-Feb-20 14:51 34.494842 -118.461390 336 10074ft 129kts
13-Feb-20 14:52 34.527344 -118.480114 335 10054ft 129kts
13-Feb-20 14:53 34.559576 -118.499233 335 10054ft 129kts
13-Feb-20 14:54 34.591734 -118.518466 335 10055ft 128kts
13-Feb-20 14:55 34.623855 -118.537725 335 10056ft 128kts
13-Feb-20 14:56 34.655956 -118.556995 335 10057ft 128kts
13-Feb-20 14:56 34.682512 -118.573594 325 10054ft 129kts
13-Feb-20 14:58 34.715215 -118.605570 321 10036ft 130kts
13-Feb-20 14:59 34.743221 -118.633874 321 10006ft 131kts
13-Feb-20 14:59 34.766318 -118.657332 320 9980ft 131kts
13-Feb-20 15:00 34.794238 -118.685739 320 9954ft 130kts
13-Feb-20 15:02 34.826660 -118.718769 320 9933ft 130kts
13-Feb-20 15:02 34.849746 -118.742311 320 9922ft 130kts
13-Feb-20 15:03 34.877486 -118.770622 320 9915ft 130kts
13-Feb-20 15:04 34.905153 -118.798881 320 9914ft 130kts
13-Feb-20 15:05 34.932900 -118.827247 320 9924ft 130kts
13-Feb-20 15:06 34.961400 -118.854290 345 9932ft 130kts
13-Feb-20 15:07 34.997455 -118.857027 357 9937ft 131kts
13-Feb-20 15:08 35.036956 -118.857477 357 9368ft 149kts
13-Feb-20 15:09 35.077674 -118.857987 357 8560ft 131kts
13-Feb-20 15:10 35.108215 -118.858655 357 7727ft 98kts
13-Feb-20 15:11 35.139784 -118.859534 357 6813ft 138kts
13-Feb-20 15:12 35.171469 -118.860349 359 5916ft 103kts
13-Feb-20 15:13 35.200254 -118.859216 1 5123ft 99kts
13-Feb-20 15:14 35.228176 -118.857962 359 4579ft 99kts
13-Feb-20 15:15 35.255881 -118.858983 354 3760ft 98kts
13-Feb-20 15:16 35.281216 -118.870073 316 2990ft 106kts
13-Feb-20 15:17 35.301689 -118.894704 314 3001ft 103kts
13-Feb-20 15:18 35.321379 -118.920098 315 2922ft 103kts
13-Feb-20 15:19 35.341864 -118.944494 314 2407ft 103kts
13-Feb-20 15:20 35.361711 -118.969020 313 2621ft 82kts
13-Feb-20 15:21 35.376364 -118.987142 315 2242ft 74kts
13-Feb-20 15:22 35.391014 -119.005046 314 1734ft 77kts
13-Feb-20 15:23 35.405837 -119.022890 315 1161ft 74kts
13-Feb-20 15:24 35.420646 -119.040376 314 856ft 74kts
13-Feb-20 15:25 35.434793 -119.057309 315 510ft 54kts
13-Feb-20 15:26 35.435369 -119.055805 133 510ft 29kts
13-Feb-20 15:27 35.428132 -119.047062 135 510ft 36kts
13-Feb-20 15:28 35.426717 -119.043212 280 510ft 0kts
13-Feb-20 15:29 35.426730 -119.043301 280 510ft 0kts
13-Feb-20 15:30 35.426739 -119.043362 280 510ft 0kts
13-Feb-20 15:31 35.426739 -119.043362 280 510ft 0kts
13-Feb-20 15:32 35.426739 -119.043362 280 510ft 0kts
13-Feb-20 15:33 35.426739 -119.043362 280 510ft 0kts
13-Feb-20 15:34 35.426739 -119.043362 280 510ft 0kts

Navigation Log

Ident Type
Flight plan parsing failed, navigation log unavailable